sensor_id;sensor_type;location;lat;lon;timestamp;pressure;altitude;pressure_sealevel;temperature;humidity
52949;BME280;38812;50.942;3.644;2022-12-29T00:01:48;99929.06;;;10.69;100.00
52949;BME280;38812;50.942;3.644;2022-12-29T00:04:14;99954.38;;;10.72;100.00
52949;BME280;38812;50.942;3.644;2022-12-29T00:06:41;99939.19;;;10.80;100.00
52949;BME280;38812;50.942;3.644;2022-12-29T00:09:07;99941.69;;;10.83;100.00
52949;BME280;38812;50.942;3.644;2022-12-29T00:11:33;99970.59;;;10.83;100.00
52949;BME280;38812;50.942;3.644;2022-12-29T00:13:58;99946.94;;;10.83;100.00
52949;BME280;38812;50.942;3.644;2022-12-29T00:16:44;99948.00;;;10.79;100.00
52949;BME280;38812;50.942;3.644;2022-12-29T00:19:10;99948.94;;;10.76;100.00
52949;BME280;38812;50.942;3.644;2022-12-29T00:21:55;99944.56;;;10.77;100.00
52949;BME280;38812;50.942;3.644;2022-12-29T00:24:40;99951.75;;;10.72;100.00
52949;BME280;38812;50.942;3.644;2022-12-29T00:27:25;99948.25;;;10.71;100.00
52949;BME280;38812;50.942;3.644;2022-12-29T00:30:18;99942.72;;;10.79;100.00
52949;BME280;38812;50.942;3.644;2022-12-29T00:33:17;99955.97;;;10.76;100.00
52949;BME280;38812;50.942;3.644;2022-12-29T00:36:02;99946.16;;;10.81;100.00
52949;BME280;38812;50.942;3.644;2022-12-29T00:38:31;99946.47;;;10.72;100.00
52949;BME280;38812;50.942;3.644;2022-12-29T00:41:16;99966.63;;;10.71;100.00
52949;BME280;38812;50.942;3.644;2022-12-29T00:44:00;99950.56;;;10.80;100.00
52949;BME280;38812;50.942;3.644;2022-12-29T00:46:32;99961.56;;;10.90;100.00
52949;BME280;38812;50.942;3.644;2022-12-29T00:48:58;99935.50;;;10.84;100.00
52949;BME280;38812;50.942;3.644;2022-12-29T00:51:42;99932.97;;;10.82;100.00
52949;BME280;38812;50.942;3.644;2022-12-29T00:54:08;99936.44;;;10.83;100.00
52949;BME280;38812;50.942;3.644;2022-12-29T00:56:33;99946.66;;;10.90;100.00
52949;BME280;38812;50.942;3.644;2022-12-29T00:59:03;99953.59;;;10.93;100.00
52949;BME280;38812;50.942;3.644;2022-12-29T01:01:29;99947.41;;;10.94;100.00
52949;BME280;38812;50.942;3.644;2022-12-29T01:03:55;99957.03;;;10.95;100.00
52949;BME280;38812;50.942;3.644;2022-12-29T01:06:20;99943.88;;;10.95;100.00
52949;BME280;38812;50.942;3.644;2022-12-29T01:08:46;99949.28;;;10.90;100.00
52949;BME280;38812;50.942;3.644;2022-12-29T01:11:12;99916.00;;;10.91;100.00
52949;BME280;38812;50.942;3.644;2022-12-29T01:13:38;99935.19;;;10.93;100.00
52949;BME280;38812;50.942;3.644;2022-12-29T01:16:06;99944.91;;;10.91;100.00
52949;BME280;38812;50.942;3.644;2022-12-29T01:18:32;99949.34;;;10.89;100.00
52949;BME280;38812;50.942;3.644;2022-12-29T01:21:05;99951.06;;;10.90;100.00
52949;BME280;38812;50.942;3.644;2022-12-29T01:23:31;99948.75;;;10.82;100.00
52949;BME280;38812;50.942;3.644;2022-12-29T01:25:57;99958.38;;;10.82;100.00
52949;BME280;38812;50.942;3.644;2022-12-29T01:28:23;99950.63;;;10.79;100.00
52949;BME280;38812;50.942;3.644;2022-12-29T01:30:48;99955.28;;;10.71;100.00
52949;BME280;38812;50.942;3.644;2022-12-29T01:33:14;99946.03;;;10.60;100.00
52949;BME280;38812;50.942;3.644;2022-12-29T01:35:40;99939.81;;;10.61;100.00
52949;BME280;38812;50.942;3.644;2022-12-29T01:38:05;99944.22;;;10.61;100.00
52949;BME280;38812;50.942;3.644;2022-12-29T01:40:30;99940.88;;;10.57;100.00
52949;BME280;38812;50.942;3.644;2022-12-29T01:42:56;99940.13;;;10.54;100.00
52949;BME280;38812;50.942;3.644;2022-12-29T01:45:21;99941.09;;;10.51;100.00
52949;BME280;38812;50.942;3.644;2022-12-29T01:47:53;99954.00;;;10.57;100.00
52949;BME280;38812;50.942;3.644;2022-12-29T01:50:26;99940.06;;;10.55;100.00
52949;BME280;38812;50.942;3.644;2022-12-29T01:53:00;99948.16;;;10.49;100.00
52949;BME280;38812;50.942;3.644;2022-12-29T01:55:29;99936.91;;;10.46;100.00
52949;BME280;38812;50.942;3.644;2022-12-29T01:57:58;99937.81;;;10.45;100.00
52949;BME280;38812;50.942;3.644;2022-12-29T02:00:26;99931.94;;;10.38;100.00
52949;BME280;38812;50.942;3.644;2022-12-29T02:02:52;99949.41;;;10.39;100.00
52949;BME280;38812;50.942;3.644;2022-12-29T02:05:51;99945.97;;;10.37;100.00
52949;BME280;38812;50.942;3.644;2022-12-29T02:08:22;99941.72;;;10.33;100.00
52949;BME280;38812;50.942;3.644;2022-12-29T02:10:49;99943.44;;;10.34;100.00
52949;BME280;38812;50.942;3.644;2022-12-29T02:13:16;99950.47;;;10.34;100.00
52949;BME280;38812;50.942;3.644;2022-12-29T02:16:04;99954.66;;;10.39;100.00
52949;BME280;38812;50.942;3.644;2022-12-29T02:19:12;99952.38;;;10.28;100.00
52949;BME280;38812;50.942;3.644;2022-12-29T02:34:50;99934.31;;;10.18;100.00
52949;BME280;38812;50.942;3.644;2022-12-29T02:40:17;99903.53;;;9.96;100.00
52949;BME280;38812;50.942;3.644;2022-12-29T02:48:03;99910.03;;;9.86;100.00
52949;BME280;38812;50.942;3.644;2022-12-29T02:50:37;99923.03;;;9.89;100.00
52949;BME280;38812;50.942;3.644;2022-12-29T02:53:10;99916.47;;;9.76;100.00
52949;BME280;38812;50.942;3.644;2022-12-29T02:55:36;99915.72;;;9.73;100.00
52949;BME280;38812;50.942;3.644;2022-12-29T03:00:38;99930.88;;;9.63;100.00
52949;BME280;38812;50.942;3.644;2022-12-29T03:06:22;99964.97;;;9.63;100.00
52949;BME280;38812;50.942;3.644;2022-12-29T03:09:20;99952.72;;;9.63;100.00
52949;BME280;38812;50.942;3.644;2022-12-29T03:12:03;99970.84;;;9.71;100.00
52949;BME280;38812;50.942;3.644;2022-12-29T03:14:55;99978.81;;;9.68;100.00
52949;BME280;38812;50.942;3.644;2022-12-29T03:17:55;99966.56;;;9.69;100.00
52949;BME280;38812;50.942;3.644;2022-12-29T03:20:41;99964.16;;;9.61;100.00
52949;BME280;38812;50.942;3.644;2022-12-29T03:23:07;99958.19;;;9.56;100.00
52949;BME280;38812;50.942;3.644;2022-12-29T03:25:36;99964.31;;;9.56;100.00
52949;BME280;38812;50.942;3.644;2022-12-29T03:28:09;99971.31;;;9.56;100.00
52949;BME280;38812;50.942;3.644;2022-12-29T03:30:36;99964.66;;;9.46;100.00
52949;BME280;38812;50.942;3.644;2022-12-29T03:33:05;99969.63;;;9.53;100.00
52949;BME280;38812;50.942;3.644;2022-12-29T03:35:34;99976.94;;;9.44;100.00
52949;BME280;38812;50.942;3.644;2022-12-29T03:40:33;99970.16;;;9.37;100.00
52949;BME280;38812;50.942;3.644;2022-12-29T03:43:00;99969.38;;;9.33;100.00
52949;BME280;38812;50.942;3.644;2022-12-29T03:45:27;99963.41;;;9.30;100.00
52949;BME280;38812;50.942;3.644;2022-12-29T03:47:53;99974.84;;;9.27;100.00
52949;BME280;38812;50.942;3.644;2022-12-29T03:50:18;99980.03;;;9.28;100.00
52949;BME280;38812;50.942;3.644;2022-12-29T03:52:44;99984.50;;;9.25;100.00
52949;BME280;38812;50.942;3.644;2022-12-29T03:55:09;99992.41;;;9.23;100.00
52949;BME280;38812;50.942;3.644;2022-12-29T03:57:35;99995.09;;;9.20;100.00
52949;BME280;38812;50.942;3.644;2022-12-29T04:00:00;99972.34;;;9.22;100.00
52949;BME280;38812;50.942;3.644;2022-12-29T04:02:26;99998.09;;;9.38;100.00
52949;BME280;38812;50.942;3.644;2022-12-29T04:04:51;99986.69;;;9.39;100.00
52949;BME280;38812;50.942;3.644;2022-12-29T04:07:16;99980.47;;;9.43;100.00
52949;BME280;38812;50.942;3.644;2022-12-29T04:09:42;99996.03;;;9.49;100.00
52949;BME280;38812;50.942;3.644;2022-12-29T04:12:07;99999.41;;;9.52;100.00
52949;BME280;38812;50.942;3.644;2022-12-29T04:14:32;99988.06;;;9.52;100.00
52949;BME280;38812;50.942;3.644;2022-12-29T04:16:58;99994.72;;;9.62;100.00
52949;BME280;38812;50.942;3.644;2022-12-29T04:19:23;100002.50;;;9.65;100.00
52949;BME280;38812;50.942;3.644;2022-12-29T04:21:48;99990.56;;;9.55;100.00
52949;BME280;38812;50.942;3.644;2022-12-29T04:24:14;99975.03;;;9.49;100.00
52949;BME280;38812;50.942;3.644;2022-12-29T04:26:39;99982.56;;;9.59;100.00
52949;BME280;38812;50.942;3.644;2022-12-29T04:29:05;99989.56;;;9.59;100.00
52949;BME280;38812;50.942;3.644;2022-12-29T04:31:30;99984.34;;;9.59;100.00
52949;BME280;38812;50.942;3.644;2022-12-29T04:33:55;99997.44;;;9.59;100.00
52949;BME280;38812;50.942;3.644;2022-12-29T04:36:23;99987.13;;;9.53;100.00
52949;BME280;38812;50.942;3.644;2022-12-29T04:38:48;99982.00;;;9.50;100.00
52949;BME280;38812;50.942;3.644;2022-12-29T04:41:13;99997.91;;;9.44;100.00
52949;BME280;38812;50.942;3.644;2022-12-29T04:43:39;99983.25;;;9.37;100.00
52949;BME280;38812;50.942;3.644;2022-12-29T04:46:05;99999.25;;;9.29;100.00
52949;BME280;38812;50.942;3.644;2022-12-29T04:48:30;100002.88;;;9.23;100.00
52949;BME280;38812;50.942;3.644;2022-12-29T04:50:56;100002.31;;;9.12;100.00
52949;BME280;38812;50.942;3.644;2022-12-29T04:53:21;100016.44;;;9.08;100.00
52949;BME280;38812;50.942;3.644;2022-12-29T04:55:50;100009.47;;;9.07;100.00
52949;BME280;38812;50.942;3.644;2022-12-29T04:58:16;100001.47;;;9.12;100.00
52949;BME280;38812;50.942;3.644;2022-12-29T05:00:42;100014.34;;;9.19;100.00
52949;BME280;38812;50.942;3.644;2022-12-29T05:03:07;100016.69;;;9.30;100.00
52949;BME280;38812;50.942;3.644;2022-12-29T05:05:32;100013.84;;;9.36;100.00
52949;BME280;38812;50.942;3.644;2022-12-29T05:07:58;100019.00;;;9.39;100.00
52949;BME280;38812;50.942;3.644;2022-12-29T05:10:23;100012.97;;;9.37;100.00
52949;BME280;38812;50.942;3.644;2022-12-29T05:12:48;100013.09;;;9.33;100.00
52949;BME280;38812;50.942;3.644;2022-12-29T05:15:14;100018.25;;;9.36;100.00
52949;BME280;38812;50.942;3.644;2022-12-29T05:17:39;100023.28;;;9.43;100.00
52949;BME280;38812;50.942;3.644;2022-12-29T05:20:06;100021.28;;;9.51;100.00
52949;BME280;38812;50.942;3.644;2022-12-29T05:22:31;100014.56;;;9.43;100.00
52949;BME280;38812;50.942;3.644;2022-12-29T05:24:57;100018.50;;;9.56;100.00
52949;BME280;38812;50.942;3.644;2022-12-29T05:27:22;100020.69;;;9.42;100.00
52949;BME280;38812;50.942;3.644;2022-12-29T05:29:47;100027.91;;;9.34;100.00
52949;BME280;38812;50.942;3.644;2022-12-29T05:32:13;100028.13;;;9.27;100.00
52949;BME280;38812;50.942;3.644;2022-12-29T05:34:38;100039.22;;;9.36;100.00
52949;BME280;38812;50.942;3.644;2022-12-29T05:37:04;100031.19;;;9.42;100.00
52949;BME280;38812;50.942;3.644;2022-12-29T05:39:29;100036.34;;;9.45;100.00
52949;BME280;38812;50.942;3.644;2022-12-29T05:41:55;100045.63;;;9.55;100.00
52949;BME280;38812;50.942;3.644;2022-12-29T05:44:20;100047.34;;;9.56;100.00
52949;BME280;38812;50.942;3.644;2022-12-29T05:46:46;100061.09;;;9.64;100.00
52949;BME280;38812;50.942;3.644;2022-12-29T05:49:11;100048.00;;;9.64;100.00
52949;BME280;38812;50.942;3.644;2022-12-29T05:51:37;100050.88;;;9.55;100.00
52949;BME280;38812;50.942;3.644;2022-12-29T05:54:02;100069.84;;;9.65;100.00
52949;BME280;38812;50.942;3.644;2022-12-29T05:56:28;100069.06;;;9.61;100.00
52949;BME280;38812;50.942;3.644;2022-12-29T05:58:53;100067.34;;;9.60;100.00
52949;BME280;38812;50.942;3.644;2022-12-29T06:01:19;100081.19;;;9.65;100.00
52949;BME280;38812;50.942;3.644;2022-12-29T06:03:44;100067.47;;;9.55;100.00
52949;BME280;38812;50.942;3.644;2022-12-29T06:06:09;100069.16;;;9.58;100.00
52949;BME280;38812;50.942;3.644;2022-12-29T06:08:35;100075.94;;;9.65;100.00
52949;BME280;38812;50.942;3.644;2022-12-29T06:11:00;100084.63;;;9.67;100.00
52949;BME280;38812;50.942;3.644;2022-12-29T06:13:25;100081.09;;;9.68;100.00
52949;BME280;38812;50.942;3.644;2022-12-29T06:15:52;100092.50;;;9.67;100.00
52949;BME280;38812;50.942;3.644;2022-12-29T06:18:18;100093.41;;;9.66;100.00
52949;BME280;38812;50.942;3.644;2022-12-29T06:20:43;100090.03;;;9.61;100.00
52949;BME280;38812;50.942;3.644;2022-12-29T06:23:09;100093.31;;;9.69;100.00
52949;BME280;38812;50.942;3.644;2022-12-29T06:25:34;100091.69;;;9.65;100.00
52949;BME280;38812;50.942;3.644;2022-12-29T06:28:01;100094.34;;;9.63;100.00
52949;BME280;38812;50.942;3.644;2022-12-29T06:30:27;100085.97;;;9.51;100.00
52949;BME280;38812;50.942;3.644;2022-12-29T06:32:52;100098.81;;;9.60;100.00
52949;BME280;38812;50.942;3.644;2022-12-29T06:35:17;100091.69;;;9.65;100.00
52949;BME280;38812;50.942;3.644;2022-12-29T06:37:43;100107.41;;;9.65;100.00
52949;BME280;38812;50.942;3.644;2022-12-29T06:40:09;100104.72;;;9.68;100.00
52949;BME280;38812;50.942;3.644;2022-12-29T06:42:35;100119.63;;;9.66;100.00
52949;BME280;38812;50.942;3.644;2022-12-29T06:45:01;100102.41;;;9.56;100.00
52949;BME280;38812;50.942;3.644;2022-12-29T06:47:26;100110.16;;;9.60;100.00
52949;BME280;38812;50.942;3.644;2022-12-29T06:49:52;100112.22;;;9.51;100.00
52949;BME280;38812;50.942;3.644;2022-12-29T06:52:17;100109.38;;;9.57;100.00
52949;BME280;38812;50.942;3.644;2022-12-29T06:54:43;100101.44;;;9.60;100.00
52949;BME280;38812;50.942;3.644;2022-12-29T06:57:08;100104.13;;;9.57;100.00
52949;BME280;38812;50.942;3.644;2022-12-29T06:59:33;100109.22;;;9.63;100.00
52949;BME280;38812;50.942;3.644;2022-12-29T07:01:59;100106.59;;;9.63;100.00
52949;BME280;38812;50.942;3.644;2022-12-29T07:04:27;100116.09;;;9.67;100.00
52949;BME280;38812;50.942;3.644;2022-12-29T07:06:52;100100.44;;;9.64;100.00
52949;BME280;38812;50.942;3.644;2022-12-29T07:09:17;100088.38;;;9.58;100.00
52949;BME280;38812;50.942;3.644;2022-12-29T07:11:43;100103.19;;;9.59;100.00
52949;BME280;38812;50.942;3.644;2022-12-29T07:14:10;100084.09;;;9.54;100.00
52949;BME280;38812;50.942;3.644;2022-12-29T07:16:35;100111.91;;;9.60;100.00
52949;BME280;38812;50.942;3.644;2022-12-29T07:19:01;100101.22;;;9.68;100.00
52949;BME280;38812;50.942;3.644;2022-12-29T07:21:26;100093.47;;;9.63;100.00
52949;BME280;38812;50.942;3.644;2022-12-29T07:23:53;100097.00;;;9.62;100.00
52949;BME280;38812;50.942;3.644;2022-12-29T07:26:19;100112.78;;;9.60;100.00
52949;BME280;38812;50.942;3.644;2022-12-29T07:28:44;100118.00;;;9.62;100.00
52949;BME280;38812;50.942;3.644;2022-12-29T07:31:18;100123.09;;;9.67;100.00
52949;BME280;38812;50.942;3.644;2022-12-29T07:33:44;100120.50;;;9.67;100.00
52949;BME280;38812;50.942;3.644;2022-12-29T07:36:12;100117.94;;;9.63;100.00
52949;BME280;38812;50.942;3.644;2022-12-29T07:38:38;100109.31;;;9.60;100.00
52949;BME280;38812;50.942;3.644;2022-12-29T07:41:04;100128.31;;;9.68;100.00
52949;BME280;38812;50.942;3.644;2022-12-29T07:43:29;100131.91;;;9.64;100.00
52949;BME280;38812;50.942;3.644;2022-12-29T07:45:54;100122.25;;;9.66;100.00
52949;BME280;38812;50.942;3.644;2022-12-29T07:48:20;100133.56;;;9.68;100.00
52949;BME280;38812;50.942;3.644;2022-12-29T07:50:45;100137.16;;;9.64;100.00
52949;BME280;38812;50.942;3.644;2022-12-29T07:53:11;100131.00;;;9.65;100.00
52949;BME280;38812;50.942;3.644;2022-12-29T07:55:36;100148.44;;;9.68;100.00
52949;BME280;38812;50.942;3.644;2022-12-29T07:58:02;100148.47;;;9.66;100.00
52949;BME280;38812;50.942;3.644;2022-12-29T08:00:27;100152.72;;;9.70;100.00
52949;BME280;38812;50.942;3.644;2022-12-29T08:02:53;100146.63;;;9.70;100.00
52949;BME280;38812;50.942;3.644;2022-12-29T08:05:18;100152.72;;;9.70;100.00
52949;BME280;38812;50.942;3.644;2022-12-29T08:07:45;100153.63;;;9.69;100.00
52949;BME280;38812;50.942;3.644;2022-12-29T08:10:11;100171.09;;;9.70;100.00
52949;BME280;38812;50.942;3.644;2022-12-29T08:12:40;100165.88;;;9.69;100.00
52949;BME280;38812;50.942;3.644;2022-12-29T08:15:07;100173.72;;;9.70;100.00
52949;BME280;38812;50.942;3.644;2022-12-29T08:17:33;100176.50;;;9.64;100.00
52949;BME280;38812;50.942;3.644;2022-12-29T08:19:58;100188.91;;;9.57;100.00
52949;BME280;38812;50.942;3.644;2022-12-29T08:22:24;100183.16;;;9.45;100.00
52949;BME280;38812;50.942;3.644;2022-12-29T08:24:49;100188.63;;;9.36;100.00
52949;BME280;38812;50.942;3.644;2022-12-29T08:27:15;100200.16;;;9.30;100.00
52949;BME280;38812;50.942;3.644;2022-12-29T08:29:40;100190.34;;;9.37;100.00
52949;BME280;38812;50.942;3.644;2022-12-29T08:32:06;100203.41;;;9.38;100.00
52949;BME280;38812;50.942;3.644;2022-12-29T08:34:32;100208.69;;;9.37;100.00
52949;BME280;38812;50.942;3.644;2022-12-29T08:36:58;100211.31;;;9.37;100.00
52949;BME280;38812;50.942;3.644;2022-12-29T08:39:23;100208.06;;;9.28;100.00
52949;BME280;38812;50.942;3.644;2022-12-29T08:41:49;100230.91;;;9.23;100.00
52949;BME280;38812;50.942;3.644;2022-12-29T08:44:14;100213.84;;;9.07;100.00
52949;BME280;38812;50.942;3.644;2022-12-29T08:46:39;100235.72;;;9.06;100.00
52949;BME280;38812;50.942;3.644;2022-12-29T08:49:05;100228.03;;;8.99;100.00
52949;BME280;38812;50.942;3.644;2022-12-29T08:51:30;100234.13;;;8.99;100.00
52949;BME280;38812;50.942;3.644;2022-12-29T08:53:56;100257.69;;;8.99;100.00
52949;BME280;38812;50.942;3.644;2022-12-29T08:56:21;100270.91;;;8.94;100.00
52949;BME280;38812;50.942;3.644;2022-12-29T08:58:49;100274.50;;;8.90;100.00
52949;BME280;38812;50.942;3.644;2022-12-29T09:01:14;100261.72;;;8.77;100.00
52949;BME280;38812;50.942;3.644;2022-12-29T09:03:39;100287.06;;;8.76;100.00
52949;BME280;38812;50.942;3.644;2022-12-29T09:06:05;100272.13;;;8.80;100.00
52949;BME280;38812;50.942;3.644;2022-12-29T09:08:30;100289.44;;;8.87;100.00
52949;BME280;38812;50.942;3.644;2022-12-29T09:11:05;100290.34;;;8.86;100.00
52949;BME280;38812;50.942;3.644;2022-12-29T09:13:31;100294.72;;;8.85;100.00
52949;BME280;38812;50.942;3.644;2022-12-29T09:15:59;100295.53;;;8.87;100.00
52949;BME280;38812;50.942;3.644;2022-12-29T09:18:25;100292.78;;;8.92;100.00
52949;BME280;38812;50.942;3.644;2022-12-29T09:20:56;100298.94;;;8.91;100.00
52949;BME280;38812;50.942;3.644;2022-12-29T09:23:22;100313.06;;;8.85;100.00
52949;BME280;38812;50.942;3.644;2022-12-29T09:25:47;100309.47;;;8.88;100.00
52949;BME280;38812;50.942;3.644;2022-12-29T09:28:12;100321.53;;;8.95;100.00
52949;BME280;38812;50.942;3.644;2022-12-29T09:30:38;100336.09;;;9.08;100.00
52949;BME280;38812;50.942;3.644;2022-12-29T09:33:04;100320.28;;;9.11;100.00
52949;BME280;38812;50.942;3.644;2022-12-29T09:35:29;100331.63;;;9.12;100.00
52949;BME280;38812;50.942;3.644;2022-12-29T09:37:55;100327.97;;;9.19;100.00
52949;BME280;38812;50.942;3.644;2022-12-29T09:40:30;100340.25;;;9.17;100.00
52949;BME280;38812;50.942;3.644;2022-12-29T09:43:10;100340.16;;;9.21;100.00
52949;BME280;38812;50.942;3.644;2022-12-29T09:48:44;100334.16;;;9.16;100.00
52949;BME280;38812;50.942;3.644;2022-12-29T09:51:17;100350.59;;;9.23;100.00
52949;BME280;38812;50.942;3.644;2022-12-29T09:53:51;100369.19;;;9.12;100.00
52949;BME280;38812;50.942;3.644;2022-12-29T09:56:21;100362.34;;;9.07;100.00
52949;BME280;38812;50.942;3.644;2022-12-29T09:59:04;100376.44;;;9.01;100.00
52949;BME280;38812;50.942;3.644;2022-12-29T10:01:36;100363.56;;;8.90;100.00
52949;BME280;38812;50.942;3.644;2022-12-29T10:04:06;100375.69;;;8.94;100.00
52949;BME280;38812;50.942;3.644;2022-12-29T10:20:33;100398.91;;;9.11;100.00
52949;BME280;38812;50.942;3.644;2022-12-29T10:25:46;100396.06;;;9.22;100.00
52949;BME280;38812;50.942;3.644;2022-12-29T10:30:46;100409.41;;;9.50;100.00
52949;BME280;38812;50.942;3.644;2022-12-29T10:33:16;100424.06;;;9.57;100.00
52949;BME280;38812;50.942;3.644;2022-12-29T10:35:43;100416.91;;;9.65;100.00
52949;BME280;38812;50.942;3.644;2022-12-29T10:43:27;100418.47;;;9.72;100.00
52949;BME280;38812;50.942;3.644;2022-12-29T10:45:57;100421.22;;;9.68;100.00
52949;BME280;38812;50.942;3.644;2022-12-29T10:48:34;100431.63;;;9.71;100.00
52949;BME280;38812;50.942;3.644;2022-12-29T10:51:04;100429.09;;;9.66;100.00
52949;BME280;38812;50.942;3.644;2022-12-29T10:53:38;100432.31;;;9.77;100.00
52949;BME280;38812;50.942;3.644;2022-12-29T10:57:11;100439.22;;;9.81;100.00
52949;BME280;38812;50.942;3.644;2022-12-29T10:59:26;100434.72;;;9.86;100.00
52949;BME280;38812;50.942;3.644;2022-12-29T11:07:20;100439.56;;;10.03;100.00
52949;BME280;38812;50.942;3.644;2022-12-29T11:09:46;100451.97;;;9.96;100.00
52949;BME280;38812;50.942;3.644;2022-12-29T11:14:45;100458.13;;;9.95;100.00
52949;BME280;38812;50.942;3.644;2022-12-29T11:17:15;100465.31;;;9.87;100.00
52949;BME280;38812;50.942;3.644;2022-12-29T11:19:42;100465.19;;;9.93;100.00
52949;BME280;38812;50.942;3.644;2022-12-29T11:24:45;100471.63;;;9.79;100.00
52949;BME280;38812;50.942;3.644;2022-12-29T11:27:19;100468.97;;;9.80;100.00
52949;BME280;38812;50.942;3.644;2022-12-29T11:29:48;100473.41;;;9.78;100.00
52949;BME280;38812;50.942;3.644;2022-12-29T11:32:18;100474.09;;;9.86;100.00
52949;BME280;38812;50.942;3.644;2022-12-29T11:34:44;100482.78;;;9.88;100.00
52949;BME280;38812;50.942;3.644;2022-12-29T11:37:29;100477.22;;;10.01;100.00
52949;BME280;38812;50.942;3.644;2022-12-29T11:40:01;100484.06;;;10.08;100.00
52949;BME280;38812;50.942;3.644;2022-12-29T11:42:37;100479.59;;;10.11;100.00
52949;BME280;38812;50.942;3.644;2022-12-29T11:45:27;100474.16;;;10.19;100.00
52949;BME280;38812;50.942;3.644;2022-12-29T11:48:14;100471.09;;;10.37;100.00
52949;BME280;38812;50.942;3.644;2022-12-29T11:50:42;100477.91;;;10.44;100.00
52949;BME280;38812;50.942;3.644;2022-12-29T11:55:39;100465.94;;;10.34;100.00
52949;BME280;38812;50.942;3.644;2022-12-29T11:58:05;100456.56;;;10.24;100.00
52949;BME280;38812;50.942;3.644;2022-12-29T12:00:34;100469.75;;;10.21;100.00
52949;BME280;38812;50.942;3.644;2022-12-29T12:06:00;100484.09;;;10.06;100.00
52949;BME280;38812;50.942;3.644;2022-12-29T12:13:41;100461.47;;;10.01;100.00
52949;BME280;38812;50.942;3.644;2022-12-29T12:16:12;100475.75;;;9.90;100.00
52949;BME280;38812;50.942;3.644;2022-12-29T12:18:53;100477.72;;;9.81;100.00
52949;BME280;38812;50.942;3.644;2022-12-29T12:21:41;100495.22;;;9.80;100.00
52949;BME280;38812;50.942;3.644;2022-12-29T12:27:03;100485.69;;;10.13;100.00
52949;BME280;38812;50.942;3.644;2022-12-29T12:29:38;100490.53;;;10.30;100.00
52949;BME280;38812;50.942;3.644;2022-12-29T12:34:40;100495.06;;;10.23;100.00
52949;BME280;38812;50.942;3.644;2022-12-29T12:40:15;100497.00;;;10.15;100.00
52949;BME280;38812;50.942;3.644;2022-12-29T12:43:14;100508.38;;;10.16;100.00
52949;BME280;38812;50.942;3.644;2022-12-29T12:49:02;100516.56;;;10.02;100.00
52949;BME280;38812;50.942;3.644;2022-12-29T12:57:46;100511.19;;;10.08;100.00
52949;BME280;38812;50.942;3.644;2022-12-29T13:00:17;100507.81;;;10.02;100.00
52949;BME280;38812;50.942;3.644;2022-12-29T13:05:50;100507.22;;;9.90;100.00
52949;BME280;38812;50.942;3.644;2022-12-29T13:08:49;100524.84;;;9.85;100.00
52949;BME280;38812;50.942;3.644;2022-12-29T13:11:49;100523.44;;;9.71;100.00
52949;BME280;38812;50.942;3.644;2022-12-29T13:17:17;100541.53;;;9.43;100.00
52949;BME280;38812;50.942;3.644;2022-12-29T13:28:00;100544.91;;;8.60;100.00
52949;BME280;38812;50.942;3.644;2022-12-29T13:30:36;100531.97;;;8.49;100.00
52949;BME280;38812;50.942;3.644;2022-12-29T13:36:10;100550.84;;;8.68;100.00
52949;BME280;38812;50.942;3.644;2022-12-29T13:39:01;100535.94;;;8.72;100.00
52949;BME280;38812;50.942;3.644;2022-12-29T13:41:34;100546.69;;;8.56;100.00
52949;BME280;38812;50.942;3.644;2022-12-29T13:44:03;100543.50;;;8.39;100.00
52949;BME280;38812;50.942;3.644;2022-12-29T13:46:39;100550.56;;;8.34;100.00
52949;BME280;38812;50.942;3.644;2022-12-29T13:49:11;100548.91;;;8.27;100.00
52949;BME280;38812;50.942;3.644;2022-12-29T13:51:42;100571.53;;;8.31;100.00
52949;BME280;38812;50.942;3.644;2022-12-29T13:54:29;100569.78;;;8.33;100.00
52949;BME280;38812;50.942;3.644;2022-12-29T13:57:11;100567.16;;;8.32;100.00
52949;BME280;38812;50.942;3.644;2022-12-29T13:59:44;100570.59;;;8.37;100.00
52949;BME280;38812;50.942;3.644;2022-12-29T14:02:19;100549.69;;;8.35;100.00
52949;BME280;38812;50.942;3.644;2022-12-29T14:05:01;100556.66;;;8.36;100.00
52949;BME280;38812;50.942;3.644;2022-12-29T14:07:28;100551.44;;;8.32;100.00
52949;BME280;38812;50.942;3.644;2022-12-29T14:09:55;100563.69;;;8.31;100.00
52949;BME280;38812;50.942;3.644;2022-12-29T14:17:37;100570.56;;;8.38;100.00
52949;BME280;38812;50.942;3.644;2022-12-29T14:20:06;100565.38;;;8.35;100.00
52949;BME280;38812;50.942;3.644;2022-12-29T14:23:15;100577.53;;;8.41;100.00
52949;BME280;38812;50.942;3.644;2022-12-29T14:28:26;100581.53;;;8.62;100.00
52949;BME280;38812;50.942;3.644;2022-12-29T14:30:54;100581.34;;;8.71;100.00
52949;BME280;38812;50.942;3.644;2022-12-29T14:33:21;100582.22;;;8.71;100.00
52949;BME280;38812;50.942;3.644;2022-12-29T14:35:47;100577.84;;;8.72;100.00
52949;BME280;38812;50.942;3.644;2022-12-29T14:38:19;100586.78;;;8.60;100.00
52949;BME280;38812;50.942;3.644;2022-12-29T14:40:47;100580.97;;;8.43;100.00
52949;BME280;38812;50.942;3.644;2022-12-29T14:43:25;100580.25;;;8.33;100.00
52949;BME280;38812;50.942;3.644;2022-12-29T14:45:59;100589.84;;;8.31;100.00
52949;BME280;38812;50.942;3.644;2022-12-29T14:50:57;100585.50;;;8.30;100.00
52949;BME280;38812;50.942;3.644;2022-12-29T14:53:48;100597.66;;;8.37;100.00
52949;BME280;38812;50.942;3.644;2022-12-29T14:56:16;100610.59;;;8.45;100.00
52949;BME280;38812;50.942;3.644;2022-12-29T14:58:55;100607.22;;;8.38;100.00
52949;BME280;38812;50.942;3.644;2022-12-29T15:03:56;100607.94;;;8.46;100.00
52949;BME280;38812;50.942;3.644;2022-12-29T15:06:24;100609.81;;;8.41;100.00
52949;BME280;38812;50.942;3.644;2022-12-29T15:09:06;100620.31;;;8.38;100.00
52949;BME280;38812;50.942;3.644;2022-12-29T15:14:02;100604.91;;;8.17;100.00